sensor_id;sensor_type;location;lat;lon;timestamp;P1;durP1;ratioP1;P2;durP2;ratioP2
35084;SDS011;21267;51.032;6.998;2023-11-19T00:00:53;2.08;;;1.77;;
35084;SDS011;21267;51.032;6.998;2023-11-19T00:05:50;2.53;;;2.25;;
35084;SDS011;21267;51.032;6.998;2023-11-19T00:08:22;2.78;;;2.00;;
35084;SDS011;21267;51.032;6.998;2023-11-19T00:10:51;2.15;;;1.90;;
35084;SDS011;21267;51.032;6.998;2023-11-19T00:13:18;1.80;;;1.70;;
35084;SDS011;21267;51.032;6.998;2023-11-19T00:15:48;4.83;;;2.07;;
35084;SDS011;21267;51.032;6.998;2023-11-19T00:18:15;2.17;;;1.90;;
35084;SDS011;21267;51.032;6.998;2023-11-19T00:20:43;1.90;;;1.80;;
35084;SDS011;21267;51.032;6.998;2023-11-19T00:23:18;1.73;;;1.63;;
35084;SDS011;21267;51.032;6.998;2023-11-19T00:25:51;1.85;;;1.60;;
35084;SDS011;21267;51.032;6.998;2023-11-19T00:28:42;3.33;;;1.77;;
35084;SDS011;21267;51.032;6.998;2023-11-19T00:31:29;1.52;;;1.42;;
35084;SDS011;21267;51.032;6.998;2023-11-19T00:34:37;1.40;;;1.30;;
35084;SDS011;21267;51.032;6.998;2023-11-19T00:37:25;1.85;;;1.17;;
35084;SDS011;21267;51.032;6.998;2023-11-19T00:40:44;4.30;;;1.70;;
35084;SDS011;21267;51.032;6.998;2023-11-19T00:43:20;1.70;;;1.60;;
35084;SDS011;21267;51.032;6.998;2023-11-19T00:48:45;3.67;;;1.70;;
35084;SDS011;21267;51.032;6.998;2023-11-19T00:51:16;2.17;;;1.45;;
35084;SDS011;21267;51.032;6.998;2023-11-19T00:54:12;3.17;;;1.98;;
35084;SDS011;21267;51.032;6.998;2023-11-19T00:56:42;2.63;;;1.75;;
35084;SDS011;21267;51.032;6.998;2023-11-19T01:01:35;16.73;;;10.93;;
35084;SDS011;21267;51.032;6.998;2023-11-19T01:04:17;2.72;;;2.38;;
35084;SDS011;21267;51.032;6.998;2023-11-19T01:12:56;2.05;;;1.85;;
35084;SDS011;21267;51.032;6.998;2023-11-19T01:15:50;2.45;;;2.05;;
35084;SDS011;21267;51.032;6.998;2023-11-19T01:18:39;2.72;;;1.90;;
35084;SDS011;21267;51.032;6.998;2023-11-19T01:21:24;3.33;;;2.10;;
35084;SDS011;21267;51.032;6.998;2023-11-19T01:24:44;2.60;;;2.40;;
35084;SDS011;21267;51.032;6.998;2023-11-19T01:27:27;3.58;;;2.10;;
35084;SDS011;21267;51.032;6.998;2023-11-19T01:30:08;2.38;;;2.10;;
35084;SDS011;21267;51.032;6.998;2023-11-19T01:32:52;3.85;;;2.30;;
35084;SDS011;21267;51.032;6.998;2023-11-19T01:35:23;3.85;;;1.92;;
35084;SDS011;21267;51.032;6.998;2023-11-19T01:38:04;4.05;;;2.70;;
35084;SDS011;21267;51.032;6.998;2023-11-19T01:41:02;3.17;;;2.50;;
35084;SDS011;21267;51.032;6.998;2023-11-19T01:43:41;3.13;;;2.50;;
35084;SDS011;21267;51.032;6.998;2023-11-19T01:46:09;3.83;;;2.53;;
35084;SDS011;21267;51.032;6.998;2023-11-19T01:51:43;4.47;;;2.85;;
35084;SDS011;21267;51.032;6.998;2023-11-19T01:54:14;3.95;;;2.50;;
35084;SDS011;21267;51.032;6.998;2023-11-19T01:57:07;2.63;;;2.40;;
35084;SDS011;21267;51.032;6.998;2023-11-19T01:59:43;4.15;;;3.00;;
35084;SDS011;21267;51.032;6.998;2023-11-19T02:02:11;4.20;;;2.95;;
35084;SDS011;21267;51.032;6.998;2023-11-19T02:04:40;4.63;;;3.55;;
35084;SDS011;21267;51.032;6.998;2023-11-19T02:07:23;3.63;;;3.00;;
35084;SDS011;21267;51.032;6.998;2023-11-19T02:09:51;4.75;;;2.90;;
35084;SDS011;21267;51.032;6.998;2023-11-19T02:15:44;5.85;;;3.50;;
35084;SDS011;21267;51.032;6.998;2023-11-19T02:18:21;4.97;;;3.78;;
35084;SDS011;21267;51.032;6.998;2023-11-19T02:20:55;9.88;;;4.30;;
35084;SDS011;21267;51.032;6.998;2023-11-19T02:23:28;6.72;;;4.18;;
35084;SDS011;21267;51.032;6.998;2023-11-19T02:29:34;4.87;;;3.80;;
35084;SDS011;21267;51.032;6.998;2023-11-19T02:32:05;5.47;;;3.50;;
35084;SDS011;21267;51.032;6.998;2023-11-19T02:34:41;6.38;;;3.88;;
35084;SDS011;21267;51.032;6.998;2023-11-19T02:37:08;7.65;;;4.53;;
35084;SDS011;21267;51.032;6.998;2023-11-19T02:39:38;9.15;;;4.72;;
35084;SDS011;21267;51.032;6.998;2023-11-19T02:42:35;7.78;;;4.70;;
35084;SDS011;21267;51.032;6.998;2023-11-19T02:45:03;7.27;;;3.83;;
35084;SDS011;21267;51.032;6.998;2023-11-19T02:47:34;7.32;;;3.70;;
35084;SDS011;21267;51.032;6.998;2023-11-19T02:50:36;6.95;;;5.53;;
35084;SDS011;21267;51.032;6.998;2023-11-19T02:53:30;6.93;;;3.28;;
35084;SDS011;21267;51.032;6.998;2023-11-19T02:56:07;3.78;;;2.60;;
35084;SDS011;21267;51.032;6.998;2023-11-19T02:58:55;6.03;;;2.15;;
35084;SDS011;21267;51.032;6.998;2023-11-19T03:01:26;4.32;;;1.98;;
35084;SDS011;21267;51.032;6.998;2023-11-19T03:04:32;6.70;;;2.53;;
35084;SDS011;21267;51.032;6.998;2023-11-19T03:07:23;4.63;;;2.45;;
35084;SDS011;21267;51.032;6.998;2023-11-19T03:10:09;6.70;;;2.17;;
35084;SDS011;21267;51.032;6.998;2023-11-19T03:12:43;5.13;;;2.22;;
35084;SDS011;21267;51.032;6.998;2023-11-19T03:15:26;6.18;;;2.50;;
35084;SDS011;21267;51.032;6.998;2023-11-19T03:17:58;4.60;;;2.10;;
35084;SDS011;21267;51.032;6.998;2023-11-19T03:20:42;12.43;;;4.28;;
35084;SDS011;21267;51.032;6.998;2023-11-19T03:23:14;7.13;;;2.22;;
35084;SDS011;21267;51.032;6.998;2023-11-19T03:26:04;14.98;;;3.85;;
35084;SDS011;21267;51.032;6.998;2023-11-19T03:28:44;13.50;;;5.03;;
35084;SDS011;21267;51.032;6.998;2023-11-19T03:31:50;14.68;;;4.03;;
35084;SDS011;21267;51.032;6.998;2023-11-19T03:37:26;10.50;;;4.10;;
35084;SDS011;21267;51.032;6.998;2023-11-19T03:39:54;11.40;;;3.85;;
35084;SDS011;21267;51.032;6.998;2023-11-19T03:42:31;13.30;;;5.22;;
35084;SDS011;21267;51.032;6.998;2023-11-19T03:45:06;18.10;;;4.55;;
35084;SDS011;21267;51.032;6.998;2023-11-19T03:47:37;7.57;;;1.77;;
35084;SDS011;21267;51.032;6.998;2023-11-19T03:50:08;12.38;;;2.72;;
35084;SDS011;21267;51.032;6.998;2023-11-19T03:52:36;12.68;;;2.33;;
35084;SDS011;21267;51.032;6.998;2023-11-19T03:55:07;13.45;;;2.55;;
35084;SDS011;21267;51.032;6.998;2023-11-19T03:57:35;13.40;;;2.47;;
35084;SDS011;21267;51.032;6.998;2023-11-19T04:00:02;6.93;;;2.13;;
35084;SDS011;21267;51.032;6.998;2023-11-19T04:02:36;11.32;;;1.92;;
35084;SDS011;21267;51.032;6.998;2023-11-19T04:07:52;13.38;;;2.65;;
35084;SDS011;21267;51.032;6.998;2023-11-19T04:10:22;12.85;;;2.67;;
35084;SDS011;21267;51.032;6.998;2023-11-19T04:12:55;11.40;;;2.10;;
35084;SDS011;21267;51.032;6.998;2023-11-19T04:15:22;11.10;;;2.37;;
35084;SDS011;21267;51.032;6.998;2023-11-19T04:17:49;12.88;;;2.97;;
35084;SDS011;21267;51.032;6.998;2023-11-19T04:20:16;13.93;;;2.35;;
35084;SDS011;21267;51.032;6.998;2023-11-19T04:22:47;12.38;;;2.35;;
35084;SDS011;21267;51.032;6.998;2023-11-19T04:25:13;14.40;;;2.90;;
35084;SDS011;21267;51.032;6.998;2023-11-19T04:30:08;11.33;;;2.13;;
35084;SDS011;21267;51.032;6.998;2023-11-19T04:32:38;10.30;;;2.20;;
35084;SDS011;21267;51.032;6.998;2023-11-19T04:35:07;10.88;;;2.28;;
35084;SDS011;21267;51.032;6.998;2023-11-19T04:37:36;10.32;;;2.38;;
35084;SDS011;21267;51.032;6.998;2023-11-19T04:40:04;12.85;;;2.40;;
35084;SDS011;21267;51.032;6.998;2023-11-19T04:42:32;10.77;;;2.28;;
35084;SDS011;21267;51.032;6.998;2023-11-19T04:45:00;13.75;;;2.63;;
35084;SDS011;21267;51.032;6.998;2023-11-19T04:47:29;11.90;;;2.40;;
35084;SDS011;21267;51.032;6.998;2023-11-19T04:50:04;7.38;;;1.95;;
35084;SDS011;21267;51.032;6.998;2023-11-19T04:52:31;12.73;;;3.15;;
35084;SDS011;21267;51.032;6.998;2023-11-19T04:54:58;13.57;;;2.40;;
35084;SDS011;21267;51.032;6.998;2023-11-19T04:57:26;9.57;;;2.13;;
35084;SDS011;21267;51.032;6.998;2023-11-19T04:59:53;13.95;;;2.53;;
35084;SDS011;21267;51.032;6.998;2023-11-19T05:02:26;12.82;;;2.20;;
35084;SDS011;21267;51.032;6.998;2023-11-19T05:05:00;11.68;;;2.33;;
35084;SDS011;21267;51.032;6.998;2023-11-19T05:07:33;22.17;;;3.55;;
35084;SDS011;21267;51.032;6.998;2023-11-19T05:10:05;18.73;;;3.63;;
35084;SDS011;21267;51.032;6.998;2023-11-19T05:12:33;11.07;;;2.15;;
35084;SDS011;21267;51.032;6.998;2023-11-19T05:15:00;16.05;;;2.65;;
35084;SDS011;21267;51.032;6.998;2023-11-19T05:17:31;9.13;;;2.45;;
35084;SDS011;21267;51.032;6.998;2023-11-19T05:20:04;14.43;;;3.00;;
35084;SDS011;21267;51.032;6.998;2023-11-19T05:22:43;15.18;;;2.60;;
35084;SDS011;21267;51.032;6.998;2023-11-19T05:25:10;11.82;;;3.03;;
35084;SDS011;21267;51.032;6.998;2023-11-19T05:27:37;15.65;;;3.10;;
35084;SDS011;21267;51.032;6.998;2023-11-19T05:30:13;12.98;;;2.33;;
35084;SDS011;21267;51.032;6.998;2023-11-19T05:32:42;7.55;;;1.73;;
35084;SDS011;21267;51.032;6.998;2023-11-19T05:35:10;12.93;;;2.72;;
35084;SDS011;21267;51.032;6.998;2023-11-19T05:37:37;11.90;;;2.08;;
35084;SDS011;21267;51.032;6.998;2023-11-19T05:40:05;10.02;;;2.28;;
35084;SDS011;21267;51.032;6.998;2023-11-19T05:42:51;11.13;;;1.97;;
35084;SDS011;21267;51.032;6.998;2023-11-19T05:45:18;13.02;;;2.35;;
35084;SDS011;21267;51.032;6.998;2023-11-19T05:47:49;9.30;;;2.20;;
35084;SDS011;21267;51.032;6.998;2023-11-19T05:50:16;11.32;;;2.65;;
35084;SDS011;21267;51.032;6.998;2023-11-19T05:52:43;17.38;;;2.60;;
35084;SDS011;21267;51.032;6.998;2023-11-19T05:55:11;13.32;;;2.63;;
35084;SDS011;21267;51.032;6.998;2023-11-19T05:57:41;11.18;;;3.38;;
35084;SDS011;21267;51.032;6.998;2023-11-19T06:00:11;13.65;;;2.25;;
35084;SDS011;21267;51.032;6.998;2023-11-19T06:02:51;14.07;;;2.88;;
35084;SDS011;21267;51.032;6.998;2023-11-19T06:05:18;13.85;;;2.72;;
35084;SDS011;21267;51.032;6.998;2023-11-19T06:07:46;11.98;;;1.77;;
35084;SDS011;21267;51.032;6.998;2023-11-19T06:10:16;14.18;;;2.60;;
35084;SDS011;21267;51.032;6.998;2023-11-19T06:12:47;10.60;;;2.13;;
35084;SDS011;21267;51.032;6.998;2023-11-19T06:15:14;23.50;;;2.78;;
35084;SDS011;21267;51.032;6.998;2023-11-19T06:17:41;16.02;;;3.00;;
35084;SDS011;21267;51.032;6.998;2023-11-19T06:20:13;15.10;;;2.88;;
35084;SDS011;21267;51.032;6.998;2023-11-19T06:25:13;16.48;;;3.03;;
35084;SDS011;21267;51.032;6.998;2023-11-19T06:27:41;10.23;;;2.03;;
35084;SDS011;21267;51.032;6.998;2023-11-19T06:30:10;7.45;;;1.15;;
35084;SDS011;21267;51.032;6.998;2023-11-19T06:32:38;13.32;;;2.95;;
35084;SDS011;21267;51.032;6.998;2023-11-19T06:35:11;15.40;;;3.13;;
35084;SDS011;21267;51.032;6.998;2023-11-19T06:37:40;15.32;;;2.67;;
35084;SDS011;21267;51.032;6.998;2023-11-19T06:40:08;18.70;;;5.03;;
35084;SDS011;21267;51.032;6.998;2023-11-19T06:42:35;20.45;;;5.57;;
35084;SDS011;21267;51.032;6.998;2023-11-19T06:45:03;11.90;;;2.60;;
35084;SDS011;21267;51.032;6.998;2023-11-19T06:47:30;18.15;;;3.22;;
35084;SDS011;21267;51.032;6.998;2023-11-19T06:49:58;19.10;;;3.25;;
35084;SDS011;21267;51.032;6.998;2023-11-19T06:52:28;17.30;;;3.03;;
35084;SDS011;21267;51.032;6.998;2023-11-19T06:54:55;13.07;;;3.27;;
35084;SDS011;21267;51.032;6.998;2023-11-19T06:57:34;16.13;;;3.97;;
35084;SDS011;21267;51.032;6.998;2023-11-19T07:00:06;17.85;;;3.55;;
35084;SDS011;21267;51.032;6.998;2023-11-19T07:05:17;18.93;;;3.10;;
35084;SDS011;21267;51.032;6.998;2023-11-19T07:08:10;14.80;;;3.47;;
35084;SDS011;21267;51.032;6.998;2023-11-19T07:10:38;17.38;;;3.42;;
35084;SDS011;21267;51.032;6.998;2023-11-19T07:13:05;13.75;;;3.25;;
35084;SDS011;21267;51.032;6.998;2023-11-19T07:15:33;7.40;;;1.80;;
35084;SDS011;21267;51.032;6.998;2023-11-19T07:18:03;18.27;;;2.70;;
35084;SDS011;21267;51.032;6.998;2023-11-19T07:20:33;20.80;;;3.40;;
35084;SDS011;21267;51.032;6.998;2023-11-19T07:23:02;21.52;;;4.28;;
35084;SDS011;21267;51.032;6.998;2023-11-19T07:25:29;13.53;;;2.50;;
35084;SDS011;21267;51.032;6.998;2023-11-19T07:27:56;12.95;;;2.28;;
35084;SDS011;21267;51.032;6.998;2023-11-19T07:33:41;13.82;;;2.75;;
35084;SDS011;21267;51.032;6.998;2023-11-19T07:36:09;12.10;;;2.70;;
35084;SDS011;21267;51.032;6.998;2023-11-19T07:38:37;11.80;;;3.65;;
35084;SDS011;21267;51.032;6.998;2023-11-19T07:41:06;12.10;;;2.70;;
35084;SDS011;21267;51.032;6.998;2023-11-19T07:43:35;16.45;;;3.75;;
35084;SDS011;21267;51.032;6.998;2023-11-19T07:46:05;12.75;;;2.20;;
35084;SDS011;21267;51.032;6.998;2023-11-19T07:48:37;16.75;;;2.97;;
35084;SDS011;21267;51.032;6.998;2023-11-19T07:51:04;20.27;;;3.30;;
35084;SDS011;21267;51.032;6.998;2023-11-19T07:53:32;18.00;;;3.38;;
35084;SDS011;21267;51.032;6.998;2023-11-19T07:56:00;9.57;;;2.08;;
35084;SDS011;21267;51.032;6.998;2023-11-19T07:58:27;17.90;;;2.95;;
35084;SDS011;21267;51.032;6.998;2023-11-19T08:00:55;15.43;;;2.78;;
35084;SDS011;21267;51.032;6.998;2023-11-19T08:03:22;16.55;;;2.22;;
35084;SDS011;21267;51.032;6.998;2023-11-19T08:05:56;18.80;;;2.67;;
35084;SDS011;21267;51.032;6.998;2023-11-19T08:08:26;14.40;;;3.15;;
35084;SDS011;21267;51.032;6.998;2023-11-19T08:10:59;17.40;;;3.13;;
35084;SDS011;21267;51.032;6.998;2023-11-19T08:13:26;22.70;;;3.22;;
35084;SDS011;21267;51.032;6.998;2023-11-19T08:15:54;18.23;;;3.58;;
35084;SDS011;21267;51.032;6.998;2023-11-19T08:18:21;20.43;;;3.27;;
35084;SDS011;21267;51.032;6.998;2023-11-19T08:20:47;21.60;;;3.00;;
35084;SDS011;21267;51.032;6.998;2023-11-19T08:23:19;12.38;;;2.50;;
35084;SDS011;21267;51.032;6.998;2023-11-19T08:25:47;17.58;;;3.05;;
35084;SDS011;21267;51.032;6.998;2023-11-19T08:28:14;7.00;;;1.57;;
35084;SDS011;21267;51.032;6.998;2023-11-19T08:30:41;18.60;;;3.00;;
35084;SDS011;21267;51.032;6.998;2023-11-19T08:33:08;18.90;;;4.47;;
35084;SDS011;21267;51.032;6.998;2023-11-19T08:35:35;19.13;;;2.63;;
35084;SDS011;21267;51.032;6.998;2023-11-19T08:38:02;13.80;;;3.50;;
35084;SDS011;21267;51.032;6.998;2023-11-19T08:40:28;15.00;;;3.07;;
35084;SDS011;21267;51.032;6.998;2023-11-19T08:42:58;11.93;;;2.47;;
35084;SDS011;21267;51.032;6.998;2023-11-19T08:45:25;21.60;;;3.63;;
35084;SDS011;21267;51.032;6.998;2023-11-19T08:47:52;16.40;;;2.58;;
35084;SDS011;21267;51.032;6.998;2023-11-19T08:50:19;17.63;;;2.90;;
35084;SDS011;21267;51.032;6.998;2023-11-19T08:52:46;19.00;;;3.40;;
35084;SDS011;21267;51.032;6.998;2023-11-19T08:55:16;16.23;;;3.15;;
35084;SDS011;21267;51.032;6.998;2023-11-19T08:57:43;14.45;;;3.03;;
35084;SDS011;21267;51.032;6.998;2023-11-19T09:00:10;9.97;;;3.00;;
35084;SDS011;21267;51.032;6.998;2023-11-19T09:02:43;18.15;;;4.07;;
35084;SDS011;21267;51.032;6.998;2023-11-19T09:05:10;14.27;;;3.35;;
35084;SDS011;21267;51.032;6.998;2023-11-19T09:10:05;23.98;;;3.80;;
35084;SDS011;21267;51.032;6.998;2023-11-19T09:12:32;12.38;;;2.45;;
35084;SDS011;21267;51.032;6.998;2023-11-19T09:14:59;18.63;;;3.40;;
35084;SDS011;21267;51.032;6.998;2023-11-19T09:17:26;20.13;;;3.70;;
35084;SDS011;21267;51.032;6.998;2023-11-19T09:19:53;19.80;;;3.20;;
35084;SDS011;21267;51.032;6.998;2023-11-19T09:22:19;16.70;;;3.83;;
35084;SDS011;21267;51.032;6.998;2023-11-19T09:24:46;14.82;;;3.70;;
35084;SDS011;21267;51.032;6.998;2023-11-19T09:27:14;17.80;;;3.03;;
35084;SDS011;21267;51.032;6.998;2023-11-19T09:29:42;19.65;;;3.42;;
35084;SDS011;21267;51.032;6.998;2023-11-19T09:34:36;20.00;;;4.05;;
35084;SDS011;21267;51.032;6.998;2023-11-19T09:37:03;19.23;;;4.03;;
35084;SDS011;21267;51.032;6.998;2023-11-19T09:39:46;22.02;;;3.97;;
35084;SDS011;21267;51.032;6.998;2023-11-19T09:42:13;18.87;;;4.30;;
35084;SDS011;21267;51.032;6.998;2023-11-19T09:44:40;20.20;;;3.47;;
35084;SDS011;21267;51.032;6.998;2023-11-19T09:47:10;17.60;;;5.05;;
35084;SDS011;21267;51.032;6.998;2023-11-19T09:49:39;16.05;;;4.10;;
35084;SDS011;21267;51.032;6.998;2023-11-19T09:52:06;6.90;;;2.53;;
35084;SDS011;21267;51.032;6.998;2023-11-19T09:54:33;19.25;;;4.00;;
35084;SDS011;21267;51.032;6.998;2023-11-19T09:57:01;12.68;;;2.60;;
35084;SDS011;21267;51.032;6.998;2023-11-19T09:59:32;10.15;;;2.13;;
35084;SDS011;21267;51.032;6.998;2023-11-19T10:04:29;14.15;;;2.25;;
35084;SDS011;21267;51.032;6.998;2023-11-19T10:06:57;18.33;;;3.40;;
35084;SDS011;21267;51.032;6.998;2023-11-19T10:09:24;17.17;;;3.53;;
35084;SDS011;21267;51.032;6.998;2023-11-19T10:11:51;14.13;;;2.60;;
35084;SDS011;21267;51.032;6.998;2023-11-19T10:14:19;12.27;;;2.88;;
35084;SDS011;21267;51.032;6.998;2023-11-19T10:16:50;18.98;;;3.13;;
35084;SDS011;21267;51.032;6.998;2023-11-19T10:19:19;15.45;;;3.25;;
35084;SDS011;21267;51.032;6.998;2023-11-19T10:21:47;20.45;;;3.50;;
35084;SDS011;21267;51.032;6.998;2023-11-19T10:24:14;16.38;;;3.47;;
35084;SDS011;21267;51.032;6.998;2023-11-19T10:26:56;11.35;;;2.22;;
35084;SDS011;21267;51.032;6.998;2023-11-19T10:29:25;17.15;;;4.15;;
35084;SDS011;21267;51.032;6.998;2023-11-19T10:31:55;18.88;;;3.53;;
35084;SDS011;21267;51.032;6.998;2023-11-19T10:34:43;20.48;;;3.85;;
35084;SDS011;21267;51.032;6.998;2023-11-19T10:37:29;12.50;;;3.20;;
35084;SDS011;21267;51.032;6.998;2023-11-19T10:39:58;13.30;;;2.95;;
35084;SDS011;21267;51.032;6.998;2023-11-19T10:42:25;22.67;;;3.40;;
35084;SDS011;21267;51.032;6.998;2023-11-19T10:44:52;10.40;;;2.60;;
35084;SDS011;21267;51.032;6.998;2023-11-19T10:47:19;17.27;;;2.93;;
35084;SDS011;21267;51.032;6.998;2023-11-19T10:50:04;14.68;;;2.25;;
35084;SDS011;21267;51.032;6.998;2023-11-19T10:52:32;15.63;;;2.42;;
35084;SDS011;21267;51.032;6.998;2023-11-19T10:55:00;18.58;;;2.97;;
35084;SDS011;21267;51.032;6.998;2023-11-19T10:57:32;17.40;;;3.42;;
35084;SDS011;21267;51.032;6.998;2023-11-19T11:00:03;10.90;;;2.25;;
35084;SDS011;21267;51.032;6.998;2023-11-19T11:02:40;14.70;;;2.55;;
35084;SDS011;21267;51.032;6.998;2023-11-19T11:05:12;20.60;;;3.85;;
35084;SDS011;21267;51.032;6.998;2023-11-19T11:07:39;12.75;;;2.90;;
35084;SDS011;21267;51.032;6.998;2023-11-19T11:10:08;13.35;;;2.53;;
35084;SDS011;21267;51.032;6.998;2023-11-19T11:12:36;14.75;;;3.67;;
35084;SDS011;21267;51.032;6.998;2023-11-19T11:15:10;9.15;;;1.58;;
35084;SDS011;21267;51.032;6.998;2023-11-19T11:17:40;13.80;;;2.83;;
35084;SDS011;21267;51.032;6.998;2023-11-19T11:20:09;13.25;;;3.63;;
35084;SDS011;21267;51.032;6.998;2023-11-19T11:22:41;17.75;;;3.78;;
35084;SDS011;21267;51.032;6.998;2023-11-19T11:25:28;11.65;;;2.78;;
35084;SDS011;21267;51.032;6.998;2023-11-19T11:28:05;13.60;;;3.00;;
35084;SDS011;21267;51.032;6.998;2023-11-19T11:30:39;19.67;;;3.15;;
35084;SDS011;21267;51.032;6.998;2023-11-19T11:36:30;11.40;;;3.13;;
35084;SDS011;21267;51.032;6.998;2023-11-19T11:39:04;13.25;;;2.58;;
35084;SDS011;21267;51.032;6.998;2023-11-19T11:41:34;14.57;;;2.90;;
35084;SDS011;21267;51.032;6.998;2023-11-19T11:44:01;16.70;;;3.10;;
35084;SDS011;21267;51.032;6.998;2023-11-19T11:49:04;16.42;;;2.20;;
35084;SDS011;21267;51.032;6.998;2023-11-19T11:54:09;8.23;;;2.20;;
35084;SDS011;21267;51.032;6.998;2023-11-19T11:56:37;19.55;;;3.17;;
35084;SDS011;21267;51.032;6.998;2023-11-19T11:59:08;15.68;;;1.95;;
35084;SDS011;21267;51.032;6.998;2023-11-19T12:01:59;11.80;;;3.20;;
35084;SDS011;21267;51.032;6.998;2023-11-19T12:04:26;12.63;;;2.80;;
35084;SDS011;21267;51.032;6.998;2023-11-19T12:07:07;10.98;;;3.13;;
35084;SDS011;21267;51.032;6.998;2023-11-19T12:09:41;11.65;;;2.75;;
35084;SDS011;21267;51.032;6.998;2023-11-19T12:20:02;13.50;;;2.40;;
35084;SDS011;21267;51.032;6.998;2023-11-19T12:22:38;14.85;;;2.42;;
35084;SDS011;21267;51.032;6.998;2023-11-19T12:25:06;12.63;;;1.98;;
35084;SDS011;21267;51.032;6.998;2023-11-19T12:27:41;12.88;;;2.38;;
35084;SDS011;21267;51.032;6.998;2023-11-19T12:30:10;9.68;;;2.45;;
35084;SDS011;21267;51.032;6.998;2023-11-19T12:32:44;14.88;;;2.55;;
35084;SDS011;21267;51.032;6.998;2023-11-19T12:35:12;12.63;;;2.90;;
35084;SDS011;21267;51.032;6.998;2023-11-19T12:37:42;11.65;;;2.97;;
35084;SDS011;21267;51.032;6.998;2023-11-19T12:40:14;3.08;;;1.08;;
35084;SDS011;21267;51.032;6.998;2023-11-19T12:42:45;6.85;;;0.95;;
35084;SDS011;21267;51.032;6.998;2023-11-19T12:45:13;14.75;;;2.72;;
35084;SDS011;21267;51.032;6.998;2023-11-19T12:47:43;12.93;;;2.55;;
35084;SDS011;21267;51.032;6.998;2023-11-19T12:50:10;13.30;;;2.15;;
35084;SDS011;21267;51.032;6.998;2023-11-19T12:52:37;13.00;;;2.07;;
35084;SDS011;21267;51.032;6.998;2023-11-19T12:55:05;11.70;;;2.30;;
35084;SDS011;21267;51.032;6.998;2023-11-19T12:57:55;10.68;;;2.03;;
35084;SDS011;21267;51.032;6.998;2023-11-19T13:00:23;11.82;;;2.53;;
35084;SDS011;21267;51.032;6.998;2023-11-19T13:02:55;18.55;;;3.05;;
35084;SDS011;21267;51.032;6.998;2023-11-19T13:08:03;13.68;;;2.60;;
35084;SDS011;21267;51.032;6.998;2023-11-19T13:10:32;12.60;;;2.45;;
35084;SDS011;21267;51.032;6.998;2023-11-19T13:13:09;18.08;;;2.95;;
35084;SDS011;21267;51.032;6.998;2023-11-19T13:15:35;7.50;;;2.33;;
35084;SDS011;21267;51.032;6.998;2023-11-19T13:18:03;11.85;;;1.90;;
35084;SDS011;21267;51.032;6.998;2023-11-19T13:20:30;10.00;;;2.17;;
35084;SDS011;21267;51.032;6.998;2023-11-19T13:25:26;10.57;;;2.13;;
35084;SDS011;21267;51.032;6.998;2023-11-19T13:27:54;8.32;;;1.55;;
35084;SDS011;21267;51.032;6.998;2023-11-19T13:30:21;8.38;;;2.30;;
35084;SDS011;21267;51.032;6.998;2023-11-19T13:32:52;7.47;;;1.98;;
35084;SDS011;21267;51.032;6.998;2023-11-19T13:35:22;9.73;;;1.73;;
35084;SDS011;21267;51.032;6.998;2023-11-19T13:37:50;10.27;;;1.60;;
35084;SDS011;21267;51.032;6.998;2023-11-19T13:40:18;11.93;;;2.40;;
35084;SDS011;21267;51.032;6.998;2023-11-19T13:42:46;12.55;;;2.45;;
35084;SDS011;21267;51.032;6.998;2023-11-19T13:45:13;16.07;;;2.60;;
35084;SDS011;21267;51.032;6.998;2023-11-19T13:47:42;8.25;;;1.85;;
35084;SDS011;21267;51.032;6.998;2023-11-19T13:50:10;5.78;;;1.63;;
35084;SDS011;21267;51.032;6.998;2023-11-19T13:52:39;12.38;;;2.70;;
35084;SDS011;21267;51.032;6.998;2023-11-19T13:55:09;17.45;;;3.25;;
35084;SDS011;21267;51.032;6.998;2023-11-19T13:57:37;20.27;;;3.47;;
35084;SDS011;21267;51.032;6.998;2023-11-19T14:00:08;9.20;;;2.13;;
35084;SDS011;21267;51.032;6.998;2023-11-19T14:02:40;4.38;;;0.98;;
35084;SDS011;21267;51.032;6.998;2023-11-19T14:05:08;15.20;;;2.55;;
35084;SDS011;21267;51.032;6.998;2023-11-19T14:07:35;17.00;;;2.97;;
35084;SDS011;21267;51.032;6.998;2023-11-19T14:10:02;11.80;;;2.70;;
35084;SDS011;21267;51.032;6.998;2023-11-19T14:12:32;15.68;;;5.70;;
35084;SDS011;21267;51.032;6.998;2023-11-19T14:14:59;20.00;;;2.80;;
35084;SDS011;21267;51.032;6.998;2023-11-19T14:17:26;13.00;;;2.28;;
35084;SDS011;21267;51.032;6.998;2023-11-19T14:19:53;9.50;;;2.63;;
35084;SDS011;21267;51.032;6.998;2023-11-19T14:22:20;17.15;;;2.83;;
35084;SDS011;21267;51.032;6.998;2023-11-19T14:24:47;18.02;;;3.58;;
35084;SDS011;21267;51.032;6.998;2023-11-19T14:27:14;13.47;;;2.70;;
35084;SDS011;21267;51.032;6.998;2023-11-19T14:29:43;13.63;;;2.72;;
35084;SDS011;21267;51.032;6.998;2023-11-19T14:32:11;17.50;;;3.25;;
35084;SDS011;21267;51.032;6.998;2023-11-19T14:34:38;16.50;;;2.90;;
35084;SDS011;21267;51.032;6.998;2023-11-19T14:37:05;19.53;;;3.53;;
35084;SDS011;21267;51.032;6.998;2023-11-19T14:39:33;16.02;;;2.90;;
35084;SDS011;21267;51.032;6.998;2023-11-19T14:41:59;12.52;;;1.90;;
35084;SDS011;21267;51.032;6.998;2023-11-19T14:44:31;10.15;;;2.47;;
35084;SDS011;21267;51.032;6.998;2023-11-19T14:46:59;6.50;;;1.65;;
35084;SDS011;21267;51.032;6.998;2023-11-19T14:49:26;14.77;;;3.20;;
35084;SDS011;21267;51.032;6.998;2023-11-19T14:51:54;14.02;;;2.13;;
35084;SDS011;21267;51.032;6.998;2023-11-19T14:54:20;8.90;;;1.75;;
35084;SDS011;21267;51.032;6.998;2023-11-19T14:56:48;8.53;;;1.60;;
35084;SDS011;21267;51.032;6.998;2023-11-19T14:59:15;5.78;;;1.80;;
35084;SDS011;21267;51.032;6.998;2023-11-19T15:01:45;11.38;;;2.05;;
35084;SDS011;21267;51.032;6.998;2023-11-19T15:06:40;7.00;;;2.00;;
35084;SDS011;21267;51.032;6.998;2023-11-19T15:09:07;11.30;;;2.50;;
35084;SDS011;21267;51.032;6.998;2023-11-19T15:11:34;13.45;;;2.97;;
35084;SDS011;21267;51.032;6.998;2023-11-19T15:14:01;6.95;;;1.58;;
35084;SDS011;21267;51.032;6.998;2023-11-19T15:16:29;8.82;;;2.42;;
35084;SDS011;21267;51.032;6.998;2023-11-19T15:19:01;14.32;;;2.50;;
35084;SDS011;21267;51.032;6.998;2023-11-19T15:21:30;12.43;;;2.40;;
35084;SDS011;21267;51.032;6.998;2023-11-19T15:23:57;14.48;;;2.83;;
35084;SDS011;21267;51.032;6.998;2023-11-19T15:26:24;15.00;;;3.55;;
35084;SDS011;21267;51.032;6.998;2023-11-19T15:28:52;10.48;;;1.58;;
35084;SDS011;21267;51.032;6.998;2023-11-19T15:31:22;14.07;;;2.97;;
35084;SDS011;21267;51.032;6.998;2023-11-19T15:33:49;12.85;;;3.10;;
35084;SDS011;21267;51.032;6.998;2023-11-19T15:36:17;11.82;;;2.55;;
35084;SDS011;21267;51.032;6.998;2023-11-19T15:38:44;10.95;;;2.25;;
35084;SDS011;21267;51.032;6.998;2023-11-19T15:41:16;14.52;;;2.50;;
35084;SDS011;21267;51.032;6.998;2023-11-19T15:43:43;14.53;;;2.80;;
35084;SDS011;21267;51.032;6.998;2023-11-19T15:46:10;18.67;;;2.90;;
35084;SDS011;21267;51.032;6.998;2023-11-19T15:48:40;14.23;;;2.88;;
35084;SDS011;21267;51.032;6.998;2023-11-19T15:51:07;17.17;;;3.05;;
35084;SDS011;21267;51.032;6.998;2023-11-19T15:53:34;12.70;;;2.95;;
35084;SDS011;21267;51.032;6.998;2023-11-19T15:56:01;19.08;;;3.33;;
35084;SDS011;21267;51.032;6.998;2023-11-19T15:58:28;11.83;;;2.37;;
35084;SDS011;21267;51.032;6.998;2023-11-19T16:00:55;17.58;;;1.77;;
35084;SDS011;21267;51.032;6.998;2023-11-19T16:03:22;14.55;;;3.33;;
35084;SDS011;21267;51.032;6.998;2023-11-19T16:05:49;20.37;;;3.03;;
35084;SDS011;21267;51.032;6.998;2023-11-19T16:08:32;17.25;;;2.65;;
35084;SDS011;21267;51.032;6.998;2023-11-19T16:10:59;11.83;;;3.03;;
35084;SDS011;21267;51.032;6.998;2023-11-19T16:13:26;14.83;;;3.53;;
35084;SDS011;21267;51.032;6.998;2023-11-19T16:15:53;12.63;;;3.40;;